sensor_id;sensor_type;location;lat;lon;timestamp;P1;durP1;ratioP1;P2;durP2;ratioP2
18200;SDS011;9226;47.858;9.594;2023-07-29T00:01:13;6.37;;;3.27;;
18200;SDS011;9226;47.858;9.594;2023-07-29T00:03:38;6.03;;;3.67;;
18200;SDS011;9226;47.858;9.594;2023-07-29T00:06:03;5.57;;;3.43;;
18200;SDS011;9226;47.858;9.594;2023-07-29T00:08:29;6.73;;;3.13;;
18200;SDS011;9226;47.858;9.594;2023-07-29T00:10:54;5.43;;;3.20;;
18200;SDS011;9226;47.858;9.594;2023-07-29T00:13:20;15.77;;;3.67;;
18200;SDS011;9226;47.858;9.594;2023-07-29T00:15:45;6.57;;;3.60;;
18200;SDS011;9226;47.858;9.594;2023-07-29T00:18:10;7.90;;;3.83;;
18200;SDS011;9226;47.858;9.594;2023-07-29T00:20:36;8.83;;;3.67;;
18200;SDS011;9226;47.858;9.594;2023-07-29T00:23:01;7.37;;;3.40;;
18200;SDS011;9226;47.858;9.594;2023-07-29T00:25:27;7.43;;;4.10;;
18200;SDS011;9226;47.858;9.594;2023-07-29T00:27:54;5.83;;;3.63;;
18200;SDS011;9226;47.858;9.594;2023-07-29T00:30:21;7.17;;;3.73;;
18200;SDS011;9226;47.858;9.594;2023-07-29T00:32:46;6.40;;;3.70;;
18200;SDS011;9226;47.858;9.594;2023-07-29T00:35:12;4.90;;;3.37;;
18200;SDS011;9226;47.858;9.594;2023-07-29T00:37:37;6.20;;;3.60;;
18200;SDS011;9226;47.858;9.594;2023-07-29T00:40:04;6.90;;;3.83;;
18200;SDS011;9226;47.858;9.594;2023-07-29T00:42:39;8.93;;;4.53;;
18200;SDS011;9226;47.858;9.594;2023-07-29T00:45:05;6.30;;;3.83;;
18200;SDS011;9226;47.858;9.594;2023-07-29T00:47:32;6.47;;;3.80;;
18200;SDS011;9226;47.858;9.594;2023-07-29T00:49:58;6.80;;;3.87;;
18200;SDS011;9226;47.858;9.594;2023-07-29T00:52:23;6.80;;;4.07;;
18200;SDS011;9226;47.858;9.594;2023-07-29T00:54:49;6.67;;;3.73;;
18200;SDS011;9226;47.858;9.594;2023-07-29T00:57:14;8.23;;;4.07;;
18200;SDS011;9226;47.858;9.594;2023-07-29T00:59:41;6.03;;;3.90;;
18200;SDS011;9226;47.858;9.594;2023-07-29T01:02:07;6.33;;;3.57;;
18200;SDS011;9226;47.858;9.594;2023-07-29T01:04:33;6.53;;;3.83;;
18200;SDS011;9226;47.858;9.594;2023-07-29T01:07:01;6.43;;;3.73;;
18200;SDS011;9226;47.858;9.594;2023-07-29T01:14:58;5.47;;;3.60;;
18200;SDS011;9226;47.858;9.594;2023-07-29T01:17:33;10.23;;;4.27;;
18200;SDS011;9226;47.858;9.594;2023-07-29T01:20:06;6.27;;;3.97;;
18200;SDS011;9226;47.858;9.594;2023-07-29T01:22:34;7.07;;;3.97;;
18200;SDS011;9226;47.858;9.594;2023-07-29T01:25:01;7.07;;;3.63;;
18200;SDS011;9226;47.858;9.594;2023-07-29T01:27:27;7.53;;;3.63;;
18200;SDS011;9226;47.858;9.594;2023-07-29T01:29:53;5.80;;;3.53;;
18200;SDS011;9226;47.858;9.594;2023-07-29T01:32:23;9.50;;;3.30;;
18200;SDS011;9226;47.858;9.594;2023-07-29T01:38:21;5.97;;;3.07;;
18200;SDS011;9226;47.858;9.594;2023-07-29T01:40:48;5.30;;;3.50;;
18200;SDS011;9226;47.858;9.594;2023-07-29T01:43:15;7.13;;;2.83;;
18200;SDS011;9226;47.858;9.594;2023-07-29T01:45:43;3.67;;;2.80;;
18200;SDS011;9226;47.858;9.594;2023-07-29T01:48:09;4.80;;;3.00;;
18200;SDS011;9226;47.858;9.594;2023-07-29T01:50:34;4.73;;;3.03;;
18200;SDS011;9226;47.858;9.594;2023-07-29T01:53:00;4.93;;;3.20;;
18200;SDS011;9226;47.858;9.594;2023-07-29T01:55:25;4.07;;;3.00;;
18200;SDS011;9226;47.858;9.594;2023-07-29T01:57:51;4.50;;;2.93;;
18200;SDS011;9226;47.858;9.594;2023-07-29T02:00:17;5.13;;;2.77;;
18200;SDS011;9226;47.858;9.594;2023-07-29T02:02:44;5.33;;;3.07;;
18200;SDS011;9226;47.858;9.594;2023-07-29T02:05:09;5.37;;;3.00;;
18200;SDS011;9226;47.858;9.594;2023-07-29T02:07:35;6.27;;;3.27;;
18200;SDS011;9226;47.858;9.594;2023-07-29T02:10:00;5.90;;;3.23;;
18200;SDS011;9226;47.858;9.594;2023-07-29T02:12:25;4.73;;;3.00;;
18200;SDS011;9226;47.858;9.594;2023-07-29T02:14:51;6.70;;;3.03;;
18200;SDS011;9226;47.858;9.594;2023-07-29T02:17:16;6.03;;;3.20;;
18200;SDS011;9226;47.858;9.594;2023-07-29T02:19:42;7.57;;;2.80;;
18200;SDS011;9226;47.858;9.594;2023-07-29T02:22:07;5.23;;;3.03;;
18200;SDS011;9226;47.858;9.594;2023-07-29T02:24:32;5.27;;;2.93;;
18200;SDS011;9226;47.858;9.594;2023-07-29T02:26:58;4.40;;;2.93;;
18200;SDS011;9226;47.858;9.594;2023-07-29T02:29:23;4.93;;;3.03;;
18200;SDS011;9226;47.858;9.594;2023-07-29T02:31:50;5.07;;;3.20;;
18200;SDS011;9226;47.858;9.594;2023-07-29T02:34:15;4.67;;;2.87;;
18200;SDS011;9226;47.858;9.594;2023-07-29T02:36:40;4.80;;;2.93;;
18200;SDS011;9226;47.858;9.594;2023-07-29T02:39:06;5.70;;;2.83;;
18200;SDS011;9226;47.858;9.594;2023-07-29T02:41:31;4.37;;;3.07;;
18200;SDS011;9226;47.858;9.594;2023-07-29T02:43:57;7.10;;;3.10;;
18200;SDS011;9226;47.858;9.594;2023-07-29T02:46:22;6.23;;;2.87;;
18200;SDS011;9226;47.858;9.594;2023-07-29T02:48:47;4.17;;;2.63;;
18200;SDS011;9226;47.858;9.594;2023-07-29T02:51:13;4.13;;;2.67;;
18200;SDS011;9226;47.858;9.594;2023-07-29T02:53:38;4.87;;;3.00;;
18200;SDS011;9226;47.858;9.594;2023-07-29T02:56:04;3.60;;;2.63;;
18200;SDS011;9226;47.858;9.594;2023-07-29T02:58:31;6.27;;;3.30;;
18200;SDS011;9226;47.858;9.594;2023-07-29T03:01:00;5.33;;;3.13;;
18200;SDS011;9226;47.858;9.594;2023-07-29T03:03:27;8.03;;;3.10;;
18200;SDS011;9226;47.858;9.594;2023-07-29T03:06:02;5.73;;;2.93;;
18200;SDS011;9226;47.858;9.594;2023-07-29T03:08:31;4.93;;;2.83;;
18200;SDS011;9226;47.858;9.594;2023-07-29T03:10:58;5.40;;;2.80;;
18200;SDS011;9226;47.858;9.594;2023-07-29T03:13:24;7.03;;;3.20;;
18200;SDS011;9226;47.858;9.594;2023-07-29T03:15:49;5.20;;;2.73;;
18200;SDS011;9226;47.858;9.594;2023-07-29T03:18:15;6.47;;;3.13;;
18200;SDS011;9226;47.858;9.594;2023-07-29T03:20:40;5.60;;;2.83;;
18200;SDS011;9226;47.858;9.594;2023-07-29T03:23:06;4.17;;;2.70;;
18200;SDS011;9226;47.858;9.594;2023-07-29T03:25:32;5.47;;;2.80;;
18200;SDS011;9226;47.858;9.594;2023-07-29T03:27:58;5.43;;;3.10;;
18200;SDS011;9226;47.858;9.594;2023-07-29T03:30:23;5.50;;;2.90;;
18200;SDS011;9226;47.858;9.594;2023-07-29T03:32:49;4.53;;;3.20;;
18200;SDS011;9226;47.858;9.594;2023-07-29T03:35:15;4.90;;;3.27;;
18200;SDS011;9226;47.858;9.594;2023-07-29T03:37:40;3.93;;;2.80;;
18200;SDS011;9226;47.858;9.594;2023-07-29T03:40:06;4.40;;;2.93;;
18200;SDS011;9226;47.858;9.594;2023-07-29T03:42:34;5.47;;;2.97;;
18200;SDS011;9226;47.858;9.594;2023-07-29T03:44:59;4.77;;;2.93;;
18200;SDS011;9226;47.858;9.594;2023-07-29T03:47:24;4.13;;;2.70;;
18200;SDS011;9226;47.858;9.594;2023-07-29T03:49:50;5.93;;;3.40;;
18200;SDS011;9226;47.858;9.594;2023-07-29T03:52:15;6.13;;;2.83;;
18200;SDS011;9226;47.858;9.594;2023-07-29T03:54:40;7.93;;;2.83;;
18200;SDS011;9226;47.858;9.594;2023-07-29T03:57:06;6.97;;;2.97;;
18200;SDS011;9226;47.858;9.594;2023-07-29T03:59:31;5.40;;;3.00;;
18200;SDS011;9226;47.858;9.594;2023-07-29T04:01:57;5.43;;;2.77;;
18200;SDS011;9226;47.858;9.594;2023-07-29T04:04:22;5.17;;;3.10;;
18200;SDS011;9226;47.858;9.594;2023-07-29T04:06:49;7.40;;;3.13;;
18200;SDS011;9226;47.858;9.594;2023-07-29T04:09:14;4.20;;;2.47;;
18200;SDS011;9226;47.858;9.594;2023-07-29T04:11:40;5.77;;;2.80;;
18200;SDS011;9226;47.858;9.594;2023-07-29T04:14:05;4.83;;;3.00;;
18200;SDS011;9226;47.858;9.594;2023-07-29T04:16:31;4.33;;;2.90;;
18200;SDS011;9226;47.858;9.594;2023-07-29T04:18:56;4.47;;;2.73;;
18200;SDS011;9226;47.858;9.594;2023-07-29T04:21:22;5.40;;;3.07;;
18200;SDS011;9226;47.858;9.594;2023-07-29T04:23:47;5.33;;;3.00;;
18200;SDS011;9226;47.858;9.594;2023-07-29T04:26:12;7.33;;;2.93;;
18200;SDS011;9226;47.858;9.594;2023-07-29T04:28:38;4.40;;;3.00;;
18200;SDS011;9226;47.858;9.594;2023-07-29T04:31:03;4.33;;;2.87;;
18200;SDS011;9226;47.858;9.594;2023-07-29T04:33:29;5.30;;;2.93;;
18200;SDS011;9226;47.858;9.594;2023-07-29T04:35:56;5.47;;;3.43;;
18200;SDS011;9226;47.858;9.594;2023-07-29T04:38:21;9.93;;;3.47;;
18200;SDS011;9226;47.858;9.594;2023-07-29T04:40:48;13.67;;;4.37;;
18200;SDS011;9226;47.858;9.594;2023-07-29T04:43:14;7.30;;;3.43;;
18200;SDS011;9226;47.858;9.594;2023-07-29T04:45:43;8.20;;;3.93;;
18200;SDS011;9226;47.858;9.594;2023-07-29T04:48:08;7.60;;;3.20;;
18200;SDS011;9226;47.858;9.594;2023-07-29T04:50:34;5.17;;;3.20;;
18200;SDS011;9226;47.858;9.594;2023-07-29T04:52:59;7.87;;;3.47;;
18200;SDS011;9226;47.858;9.594;2023-07-29T04:55:25;6.03;;;3.20;;
18200;SDS011;9226;47.858;9.594;2023-07-29T04:57:50;5.33;;;2.97;;
18200;SDS011;9226;47.858;9.594;2023-07-29T05:00:15;5.50;;;3.70;;
18200;SDS011;9226;47.858;9.594;2023-07-29T05:02:41;5.83;;;3.67;;
18200;SDS011;9226;47.858;9.594;2023-07-29T05:05:06;9.07;;;3.63;;
18200;SDS011;9226;47.858;9.594;2023-07-29T05:07:33;7.10;;;3.37;;
18200;SDS011;9226;47.858;9.594;2023-07-29T05:09:58;6.03;;;3.73;;
18200;SDS011;9226;47.858;9.594;2023-07-29T05:12:23;5.93;;;3.50;;
18200;SDS011;9226;47.858;9.594;2023-07-29T05:14:49;5.50;;;3.20;;
18200;SDS011;9226;47.858;9.594;2023-07-29T05:17:14;7.50;;;3.57;;
18200;SDS011;9226;47.858;9.594;2023-07-29T05:19:39;4.70;;;3.50;;
18200;SDS011;9226;47.858;9.594;2023-07-29T05:22:05;5.43;;;3.63;;
18200;SDS011;9226;47.858;9.594;2023-07-29T05:24:30;6.70;;;3.80;;
18200;SDS011;9226;47.858;9.594;2023-07-29T05:26:56;5.80;;;3.60;;
18200;SDS011;9226;47.858;9.594;2023-07-29T05:29:21;6.77;;;3.70;;
18200;SDS011;9226;47.858;9.594;2023-07-29T05:31:46;5.87;;;3.90;;
18200;SDS011;9226;47.858;9.594;2023-07-29T05:34:12;7.87;;;4.20;;
18200;SDS011;9226;47.858;9.594;2023-07-29T05:36:37;9.90;;;4.17;;
18200;SDS011;9226;47.858;9.594;2023-07-29T05:39:04;8.27;;;4.13;;
18200;SDS011;9226;47.858;9.594;2023-07-29T05:41:29;7.83;;;4.00;;
18200;SDS011;9226;47.858;9.594;2023-07-29T05:43:55;9.83;;;4.10;;
18200;SDS011;9226;47.858;9.594;2023-07-29T05:46:20;6.67;;;3.37;;
18200;SDS011;9226;47.858;9.594;2023-07-29T05:48:45;6.53;;;3.90;;
18200;SDS011;9226;47.858;9.594;2023-07-29T05:51:11;6.73;;;3.90;;
18200;SDS011;9226;47.858;9.594;2023-07-29T05:53:36;7.50;;;4.27;;
18200;SDS011;9226;47.858;9.594;2023-07-29T05:56:01;12.17;;;3.97;;
18200;SDS011;9226;47.858;9.594;2023-07-29T05:58:27;7.53;;;4.37;;
18200;SDS011;9226;47.858;9.594;2023-07-29T06:00:53;8.80;;;4.53;;
18200;SDS011;9226;47.858;9.594;2023-07-29T06:03:18;9.10;;;4.10;;
18200;SDS011;9226;47.858;9.594;2023-07-29T06:05:43;6.10;;;4.17;;
18200;SDS011;9226;47.858;9.594;2023-07-29T06:08:09;8.00;;;4.73;;
18200;SDS011;9226;47.858;9.594;2023-07-29T06:10:34;8.27;;;4.13;;
18200;SDS011;9226;47.858;9.594;2023-07-29T06:12:59;6.30;;;3.87;;
18200;SDS011;9226;47.858;9.594;2023-07-29T06:15:25;8.57;;;4.00;;
18200;SDS011;9226;47.858;9.594;2023-07-29T06:17:50;10.30;;;4.47;;
18200;SDS011;9226;47.858;9.594;2023-07-29T06:20:16;10.77;;;4.53;;
18200;SDS011;9226;47.858;9.594;2023-07-29T06:22:41;9.40;;;4.10;;
18200;SDS011;9226;47.858;9.594;2023-07-29T06:25:08;7.90;;;4.40;;
18200;SDS011;9226;47.858;9.594;2023-07-29T06:27:33;7.27;;;4.40;;
18200;SDS011;9226;47.858;9.594;2023-07-29T06:29:59;7.87;;;3.87;;
18200;SDS011;9226;47.858;9.594;2023-07-29T06:32:24;8.30;;;4.40;;
18200;SDS011;9226;47.858;9.594;2023-07-29T06:34:49;6.67;;;4.27;;
18200;SDS011;9226;47.858;9.594;2023-07-29T06:37:16;7.10;;;4.50;;
18200;SDS011;9226;47.858;9.594;2023-07-29T06:39:42;8.70;;;4.93;;
18200;SDS011;9226;47.858;9.594;2023-07-29T06:42:07;7.97;;;4.80;;
18200;SDS011;9226;47.858;9.594;2023-07-29T06:44:33;6.23;;;4.23;;
18200;SDS011;9226;47.858;9.594;2023-07-29T06:46:58;9.13;;;4.10;;
18200;SDS011;9226;47.858;9.594;2023-07-29T06:49:23;6.27;;;4.13;;
18200;SDS011;9226;47.858;9.594;2023-07-29T06:51:49;6.40;;;4.33;;
18200;SDS011;9226;47.858;9.594;2023-07-29T06:54:16;8.20;;;4.70;;
18200;SDS011;9226;47.858;9.594;2023-07-29T06:56:42;7.27;;;3.83;;
18200;SDS011;9226;47.858;9.594;2023-07-29T06:59:07;5.50;;;3.80;;
18200;SDS011;9226;47.858;9.594;2023-07-29T07:01:33;8.10;;;4.10;;
18200;SDS011;9226;47.858;9.594;2023-07-29T07:03:59;6.43;;;3.90;;
18200;SDS011;9226;47.858;9.594;2023-07-29T07:06:24;7.20;;;3.80;;
18200;SDS011;9226;47.858;9.594;2023-07-29T07:08:50;6.80;;;3.47;;
18200;SDS011;9226;47.858;9.594;2023-07-29T07:11:16;8.33;;;4.40;;
18200;SDS011;9226;47.858;9.594;2023-07-29T07:13:41;8.93;;;3.87;;
18200;SDS011;9226;47.858;9.594;2023-07-29T07:16:06;4.90;;;3.20;;
18200;SDS011;9226;47.858;9.594;2023-07-29T07:18:32;7.47;;;3.83;;
18200;SDS011;9226;47.858;9.594;2023-07-29T07:20:58;5.57;;;3.90;;
18200;SDS011;9226;47.858;9.594;2023-07-29T07:23:23;6.77;;;3.90;;
18200;SDS011;9226;47.858;9.594;2023-07-29T07:25:48;6.20;;;3.40;;
18200;SDS011;9226;47.858;9.594;2023-07-29T07:28:14;6.17;;;3.60;;
18200;SDS011;9226;47.858;9.594;2023-07-29T07:30:40;5.67;;;3.83;;
18200;SDS011;9226;47.858;9.594;2023-07-29T07:33:09;6.10;;;3.40;;
18200;SDS011;9226;47.858;9.594;2023-07-29T07:35:34;6.17;;;3.53;;
18200;SDS011;9226;47.858;9.594;2023-07-29T07:38:00;6.03;;;3.47;;
18200;SDS011;9226;47.858;9.594;2023-07-29T07:40:28;5.10;;;3.57;;
18200;SDS011;9226;47.858;9.594;2023-07-29T07:42:54;5.43;;;3.60;;
18200;SDS011;9226;47.858;9.594;2023-07-29T07:45:19;5.17;;;3.47;;
18200;SDS011;9226;47.858;9.594;2023-07-29T07:47:45;7.63;;;3.87;;
18200;SDS011;9226;47.858;9.594;2023-07-29T07:50:11;4.73;;;3.30;;
18200;SDS011;9226;47.858;9.594;2023-07-29T07:52:36;5.67;;;3.53;;
18200;SDS011;9226;47.858;9.594;2023-07-29T07:55:02;5.97;;;3.63;;
18200;SDS011;9226;47.858;9.594;2023-07-29T07:57:27;5.60;;;3.57;;
18200;SDS011;9226;47.858;9.594;2023-07-29T07:59:52;5.10;;;3.00;;
18200;SDS011;9226;47.858;9.594;2023-07-29T08:02:18;11.77;;;3.70;;
18200;SDS011;9226;47.858;9.594;2023-07-29T08:04:43;4.93;;;3.40;;
18200;SDS011;9226;47.858;9.594;2023-07-29T08:07:09;7.27;;;3.67;;
18200;SDS011;9226;47.858;9.594;2023-07-29T08:09:34;4.23;;;3.00;;
18200;SDS011;9226;47.858;9.594;2023-07-29T08:12:00;7.60;;;3.50;;
18200;SDS011;9226;47.858;9.594;2023-07-29T08:14:25;6.70;;;3.50;;
18200;SDS011;9226;47.858;9.594;2023-07-29T08:16:51;5.90;;;3.20;;
18200;SDS011;9226;47.858;9.594;2023-07-29T08:19:17;5.67;;;3.30;;
18200;SDS011;9226;47.858;9.594;2023-07-29T08:21:42;6.07;;;3.73;;
18200;SDS011;9226;47.858;9.594;2023-07-29T08:24:08;5.37;;;3.17;;
18200;SDS011;9226;47.858;9.594;2023-07-29T08:26:33;6.07;;;3.73;;
18200;SDS011;9226;47.858;9.594;2023-07-29T08:28:58;5.03;;;3.23;;
18200;SDS011;9226;47.858;9.594;2023-07-29T08:31:24;8.17;;;3.40;;
18200;SDS011;9226;47.858;9.594;2023-07-29T08:33:49;5.87;;;3.23;;
18200;SDS011;9226;47.858;9.594;2023-07-29T08:36:15;7.10;;;3.70;;
18200;SDS011;9226;47.858;9.594;2023-07-29T08:38:40;5.57;;;3.37;;
18200;SDS011;9226;47.858;9.594;2023-07-29T08:46:38;4.47;;;3.03;;
18200;SDS011;9226;47.858;9.594;2023-07-29T08:49:04;5.10;;;3.07;;
18200;SDS011;9226;47.858;9.594;2023-07-29T08:51:30;5.37;;;3.10;;
18200;SDS011;9226;47.858;9.594;2023-07-29T08:53:56;7.17;;;3.67;;
18200;SDS011;9226;47.858;9.594;2023-07-29T08:56:23;5.80;;;3.30;;
18200;SDS011;9226;47.858;9.594;2023-07-29T08:58:49;4.63;;;3.20;;
18200;SDS011;9226;47.858;9.594;2023-07-29T09:01:15;5.90;;;3.63;;
18200;SDS011;9226;47.858;9.594;2023-07-29T09:03:41;4.40;;;3.13;;
18200;SDS011;9226;47.858;9.594;2023-07-29T09:06:06;4.43;;;3.30;;
18200;SDS011;9226;47.858;9.594;2023-07-29T09:08:32;9.37;;;3.40;;
18200;SDS011;9226;47.858;9.594;2023-07-29T09:10:58;6.60;;;3.27;;
18200;SDS011;9226;47.858;9.594;2023-07-29T09:13:24;4.37;;;3.23;;
18200;SDS011;9226;47.858;9.594;2023-07-29T09:15:53;5.73;;;3.37;;
18200;SDS011;9226;47.858;9.594;2023-07-29T09:18:20;4.30;;;2.83;;
18200;SDS011;9226;47.858;9.594;2023-07-29T09:20:46;4.47;;;2.93;;
18200;SDS011;9226;47.858;9.594;2023-07-29T09:23:13;5.63;;;3.27;;
18200;SDS011;9226;47.858;9.594;2023-07-29T09:25:38;5.87;;;3.60;;
18200;SDS011;9226;47.858;9.594;2023-07-29T09:28:11;6.10;;;3.33;;
18200;SDS011;9226;47.858;9.594;2023-07-29T09:30:39;4.30;;;2.97;;
18200;SDS011;9226;47.858;9.594;2023-07-29T09:33:05;5.03;;;3.30;;
18200;SDS011;9226;47.858;9.594;2023-07-29T09:35:32;4.47;;;3.00;;
18200;SDS011;9226;47.858;9.594;2023-07-29T09:37:59;5.13;;;2.80;;
18200;SDS011;9226;47.858;9.594;2023-07-29T09:40:25;7.93;;;3.30;;
18200;SDS011;9226;47.858;9.594;2023-07-29T09:45:26;8.03;;;3.47;;
18200;SDS011;9226;47.858;9.594;2023-07-29T09:47:52;8.40;;;3.30;;
18200;SDS011;9226;47.858;9.594;2023-07-29T09:50:18;4.63;;;3.13;;
18200;SDS011;9226;47.858;9.594;2023-07-29T09:52:48;5.07;;;3.40;;
18200;SDS011;9226;47.858;9.594;2023-07-29T09:55:17;4.80;;;3.50;;
18200;SDS011;9226;47.858;9.594;2023-07-29T09:57:43;4.80;;;3.17;;
18200;SDS011;9226;47.858;9.594;2023-07-29T10:00:13;6.87;;;3.67;;
18200;SDS011;9226;47.858;9.594;2023-07-29T10:02:42;5.47;;;3.27;;
18200;SDS011;9226;47.858;9.594;2023-07-29T10:05:09;7.00;;;3.67;;
18200;SDS011;9226;47.858;9.594;2023-07-29T10:07:38;4.43;;;3.40;;
18200;SDS011;9226;47.858;9.594;2023-07-29T10:10:05;6.40;;;3.83;;
18200;SDS011;9226;47.858;9.594;2023-07-29T10:12:32;6.63;;;3.83;;
18200;SDS011;9226;47.858;9.594;2023-07-29T10:15:04;4.77;;;3.37;;
18200;SDS011;9226;47.858;9.594;2023-07-29T10:17:35;5.00;;;3.40;;
18200;SDS011;9226;47.858;9.594;2023-07-29T10:20:03;5.40;;;3.50;;
18200;SDS011;9226;47.858;9.594;2023-07-29T10:22:32;5.70;;;3.20;;
18200;SDS011;9226;47.858;9.594;2023-07-29T10:25:09;7.03;;;3.97;;
18200;SDS011;9226;47.858;9.594;2023-07-29T10:27:42;6.10;;;3.63;;
18200;SDS011;9226;47.858;9.594;2023-07-29T10:30:12;6.17;;;3.60;;
18200;SDS011;9226;47.858;9.594;2023-07-29T10:32:38;11.97;;;5.23;;
18200;SDS011;9226;47.858;9.594;2023-07-29T10:35:12;8.20;;;4.00;;
18200;SDS011;9226;47.858;9.594;2023-07-29T10:37:38;7.00;;;3.37;;
18200;SDS011;9226;47.858;9.594;2023-07-29T10:40:08;4.83;;;2.93;;
18200;SDS011;9226;47.858;9.594;2023-07-29T10:42:35;5.10;;;3.00;;
18200;SDS011;9226;47.858;9.594;2023-07-29T10:45:17;4.57;;;2.90;;
18200;SDS011;9226;47.858;9.594;2023-07-29T10:47:45;5.37;;;2.70;;
18200;SDS011;9226;47.858;9.594;2023-07-29T10:50:19;4.43;;;2.70;;
18200;SDS011;9226;47.858;9.594;2023-07-29T10:52:49;4.50;;;2.87;;
18200;SDS011;9226;47.858;9.594;2023-07-29T10:55:24;5.93;;;2.63;;
18200;SDS011;9226;47.858;9.594;2023-07-29T10:57:50;4.88;;;2.33;;
18200;SDS011;9226;47.858;9.594;2023-07-29T11:00:15;4.27;;;2.60;;
18200;SDS011;9226;47.858;9.594;2023-07-29T11:02:41;4.03;;;2.87;;
18200;SDS011;9226;47.858;9.594;2023-07-29T11:05:16;3.97;;;2.57;;
18200;SDS011;9226;47.858;9.594;2023-07-29T11:07:45;5.50;;;2.63;;
18200;SDS011;9226;47.858;9.594;2023-07-29T11:10:13;6.87;;;2.73;;
18200;SDS011;9226;47.858;9.594;2023-07-29T11:12:40;4.40;;;2.70;;
18200;SDS011;9226;47.858;9.594;2023-07-29T11:17:40;3.63;;;2.30;;
18200;SDS011;9226;47.858;9.594;2023-07-29T11:20:07;3.13;;;2.33;;
18200;SDS011;9226;47.858;9.594;2023-07-29T11:22:33;4.10;;;2.40;;
18200;SDS011;9226;47.858;9.594;2023-07-29T11:24:59;4.18;;;2.80;;
18200;SDS011;9226;47.858;9.594;2023-07-29T11:27:25;4.38;;;2.47;;
18200;SDS011;9226;47.858;9.594;2023-07-29T11:29:50;4.10;;;2.70;;
18200;SDS011;9226;47.858;9.594;2023-07-29T11:32:21;3.50;;;2.80;;
18200;SDS011;9226;47.858;9.594;2023-07-29T11:34:46;3.33;;;2.38;;
18200;SDS011;9226;47.858;9.594;2023-07-29T11:37:12;5.15;;;2.95;;
18200;SDS011;9226;47.858;9.594;2023-07-29T11:39:40;2.65;;;2.17;;
18200;SDS011;9226;47.858;9.594;2023-07-29T11:42:06;3.43;;;2.27;;
18200;SDS011;9226;47.858;9.594;2023-07-29T11:44:36;3.55;;;2.53;;
18200;SDS011;9226;47.858;9.594;2023-07-29T11:47:01;3.78;;;2.58;;
18200;SDS011;9226;47.858;9.594;2023-07-29T11:49:27;4.38;;;2.50;;
18200;SDS011;9226;47.858;9.594;2023-07-29T11:51:52;4.40;;;3.08;;
18200;SDS011;9226;47.858;9.594;2023-07-29T11:54:18;3.60;;;2.73;;
18200;SDS011;9226;47.858;9.594;2023-07-29T11:56:46;3.80;;;2.40;;
18200;SDS011;9226;47.858;9.594;2023-07-29T11:59:12;3.42;;;2.50;;
18200;SDS011;9226;47.858;9.594;2023-07-29T12:01:38;4.07;;;2.63;;
18200;SDS011;9226;47.858;9.594;2023-07-29T12:04:03;4.63;;;2.67;;
18200;SDS011;9226;47.858;9.594;2023-07-29T12:06:29;4.50;;;2.47;;
18200;SDS011;9226;47.858;9.594;2023-07-29T12:08:56;4.85;;;2.45;;
18200;SDS011;9226;47.858;9.594;2023-07-29T12:11:22;3.28;;;2.53;;
18200;SDS011;9226;47.858;9.594;2023-07-29T12:13:48;3.75;;;2.60;;
18200;SDS011;9226;47.858;9.594;2023-07-29T12:16:16;3.58;;;2.67;;
18200;SDS011;9226;47.858;9.594;2023-07-29T12:18:43;5.53;;;2.67;;
18200;SDS011;9226;47.858;9.594;2023-07-29T12:21:08;3.60;;;2.70;;
18200;SDS011;9226;47.858;9.594;2023-07-29T12:23:33;6.60;;;3.00;;
18200;SDS011;9226;47.858;9.594;2023-07-29T12:25:59;3.10;;;2.50;;
18200;SDS011;9226;47.858;9.594;2023-07-29T12:28:25;5.75;;;2.80;;
18200;SDS011;9226;47.858;9.594;2023-07-29T12:30:57;6.90;;;2.85;;
18200;SDS011;9226;47.858;9.594;2023-07-29T12:33:32;3.42;;;2.20;;
18200;SDS011;9226;47.858;9.594;2023-07-29T12:35:58;3.30;;;2.45;;
18200;SDS011;9226;47.858;9.594;2023-07-29T12:38:28;5.13;;;2.47;;
18200;SDS011;9226;47.858;9.594;2023-07-29T12:40:53;3.15;;;2.30;;
18200;SDS011;9226;47.858;9.594;2023-07-29T12:43:19;12.20;;;2.90;;
18200;SDS011;9226;47.858;9.594;2023-07-29T12:45:45;6.07;;;2.80;;
18200;SDS011;9226;47.858;9.594;2023-07-29T12:48:10;4.17;;;2.90;;
18200;SDS011;9226;47.858;9.594;2023-07-29T12:50:36;4.60;;;2.50;;
18200;SDS011;9226;47.858;9.594;2023-07-29T12:53:03;3.93;;;2.60;;
18200;SDS011;9226;47.858;9.594;2023-07-29T12:55:30;5.03;;;2.70;;
18200;SDS011;9226;47.858;9.594;2023-07-29T12:57:55;5.47;;;2.43;;
18200;SDS011;9226;47.858;9.594;2023-07-29T13:00:21;3.37;;;2.70;;
18200;SDS011;9226;47.858;9.594;2023-07-29T13:02:46;3.83;;;2.37;;
18200;SDS011;9226;47.858;9.594;2023-07-29T13:05:11;3.40;;;2.60;;
18200;SDS011;9226;47.858;9.594;2023-07-29T13:07:38;3.03;;;2.10;;
18200;SDS011;9226;47.858;9.594;2023-07-29T13:10:04;3.57;;;2.10;;
18200;SDS011;9226;47.858;9.594;2023-07-29T13:12:30;7.37;;;2.90;;
18200;SDS011;9226;47.858;9.594;2023-07-29T13:14:55;6.83;;;2.80;;
18200;SDS011;9226;47.858;9.594;2023-07-29T13:17:21;5.40;;;2.63;;
18200;SDS011;9226;47.858;9.594;2023-07-29T13:19:47;5.20;;;2.60;;
18200;SDS011;9226;47.858;9.594;2023-07-29T13:22:12;4.23;;;2.30;;
18200;SDS011;9226;47.858;9.594;2023-07-29T13:24:38;2.67;;;1.80;;
18200;SDS011;9226;47.858;9.594;2023-07-29T13:27:03;2.77;;;1.80;;
18200;SDS011;9226;47.858;9.594;2023-07-29T13:29:29;4.57;;;2.03;;
18200;SDS011;9226;47.858;9.594;2023-07-29T13:31:54;3.10;;;2.13;;
18200;SDS011;9226;47.858;9.594;2023-07-29T13:34:19;4.73;;;2.30;;
18200;SDS011;9226;47.858;9.594;2023-07-29T13:36:45;7.30;;;2.50;;
18200;SDS011;9226;47.858;9.594;2023-07-29T13:39:10;3.43;;;2.30;;
18200;SDS011;9226;47.858;9.594;2023-07-29T13:41:36;3.90;;;2.50;;
18200;SDS011;9226;47.858;9.594;2023-07-29T13:44:01;4.90;;;2.30;;
18200;SDS011;9226;47.858;9.594;2023-07-29T13:46:26;4.13;;;2.10;;
18200;SDS011;9226;47.858;9.594;2023-07-29T13:48:52;5.87;;;2.43;;
18200;SDS011;9226;47.858;9.594;2023-07-29T13:51:17;2.77;;;2.13;;
18200;SDS011;9226;47.858;9.594;2023-07-29T13:53:42;3.10;;;2.40;;
18200;SDS011;9226;47.858;9.594;2023-07-29T13:56:08;2.93;;;1.93;;
18200;SDS011;9226;47.858;9.594;2023-07-29T13:58:33;4.10;;;2.10;;
18200;SDS011;9226;47.858;9.594;2023-07-29T14:00:59;3.67;;;2.60;;
18200;SDS011;9226;47.858;9.594;2023-07-29T14:03:24;3.30;;;2.13;;
18200;SDS011;9226;47.858;9.594;2023-07-29T14:05:49;3.87;;;2.40;;
18200;SDS011;9226;47.858;9.594;2023-07-29T14:08:15;3.97;;;2.47;;
18200;SDS011;9226;47.858;9.594;2023-07-29T14:10:40;3.63;;;2.50;;
18200;SDS011;9226;47.858;9.594;2023-07-29T14:13:05;2.67;;;2.30;;
18200;SDS011;9226;47.858;9.594;2023-07-29T14:15:31;3.90;;;2.00;;
18200;SDS011;9226;47.858;9.594;2023-07-29T14:17:57;4.27;;;2.00;;
18200;SDS011;9226;47.858;9.594;2023-07-29T14:20:23;7.03;;;2.73;;
18200;SDS011;9226;47.858;9.594;2023-07-29T14:22:49;6.00;;;2.80;;
18200;SDS011;9226;47.858;9.594;2023-07-29T14:25:14;5.20;;;2.50;;
18200;SDS011;9226;47.858;9.594;2023-07-29T14:27:40;3.90;;;2.30;;
18200;SDS011;9226;47.858;9.594;2023-07-29T14:30:06;3.50;;;1.97;;
18200;SDS011;9226;47.858;9.594;2023-07-29T14:32:32;2.43;;;1.80;;
18200;SDS011;9226;47.858;9.594;2023-07-29T14:34:57;2.33;;;1.70;;
18200;SDS011;9226;47.858;9.594;2023-07-29T14:37:23;5.03;;;2.30;;
18200;SDS011;9226;47.858;9.594;2023-07-29T14:39:48;2.80;;;2.20;;
18200;SDS011;9226;47.858;9.594;2023-07-29T14:42:14;2.93;;;2.00;;
18200;SDS011;9226;47.858;9.594;2023-07-29T14:44:40;8.97;;;2.33;;
18200;SDS011;9226;47.858;9.594;2023-07-29T14:47:07;2.37;;;1.50;;
18200;SDS011;9226;47.858;9.594;2023-07-29T14:49:33;3.20;;;1.60;;
18200;SDS011;9226;47.858;9.594;2023-07-29T14:51:58;2.07;;;1.63;;
18200;SDS011;9226;47.858;9.594;2023-07-29T14:54:23;2.60;;;2.03;;
18200;SDS011;9226;47.858;9.594;2023-07-29T14:56:49;3.40;;;1.80;;
18200;SDS011;9226;47.858;9.594;2023-07-29T14:59:14;3.73;;;2.10;;
18200;SDS011;9226;47.858;9.594;2023-07-29T15:01:39;2.90;;;1.70;;
18200;SDS011;9226;47.858;9.594;2023-07-29T15:04:05;6.23;;;2.10;;
18200;SDS011;9226;47.858;9.594;2023-07-29T15:06:30;2.77;;;1.73;;
18200;SDS011;9226;47.858;9.594;2023-07-29T15:08:56;3.03;;;1.90;;
18200;SDS011;9226;47.858;9.594;2023-07-29T15:11:21;4.27;;;1.80;;
18200;SDS011;9226;47.858;9.594;2023-07-29T15:13:46;2.90;;;1.97;;